Latest Weather Observations for Gayndah

IDQ60801

Issued at 6:05 pm EST Saturday 19 April 2014 (issued every 30 minutes, with the page automatically refreshed every 10 minutes)

About weather observations | Map of weather stations | Latest weather observations for QLD | Other Formats
Station Details ID: 039066 Name: GAYNDAH AIRPORT Lat: -25.62 Lon: 151.62 Height: 110.9 m
Data from the previous 72 hours. | See also: Recent months at Gayndah
Date/Time
EST
Temp
°C
App
Temp
°C
Dew
Point
Rel
Hum
%
Delta-T
°C
Wind Press
QNH
hPa
Press
MSL
hPa
Rain
since 9 am
mm
Dir
 
Spd
km/h
Gust
km/h
Spd
kts
Gust
kts
19/06:00pm 22.0 21.3 10.2 47 6.5 NNW 4 6 2 3 1014.4 1013.9 0.0
19/05:30pm 24.7 23.6 8.6 36 8.7 WNW 4 4 2 2 1014.0 - 0.0
19/05:00pm 27.1 25.3 7.0 28 10.7 NW 6 7 3 4 1013.7 1013.3 0.0
19/04:30pm 27.7 25.8 7.5 28 10.9 WNW 7 11 4 6 1013.6 - 0.0
19/04:00pm 27.8 25.9 6.6 26 11.2 WSW 6 13 3 7 1013.5 1013.1 0.0
19/03:30pm 27.9 25.7 6.1 25 11.5 SSW 7 15 4 8 1013.5 - 0.0
19/03:00pm 28.0 25.0 6.2 25 11.5 SW 11 15 6 8 1013.7 1013.3 0.0
19/02:30pm 28.0 25.9 6.7 26 11.3 WSW 7 13 4 7 1013.8 - 0.0
19/02:00pm 27.8 25.7 6.6 26 11.2 W 7 19 4 10 1013.9 1013.5 0.0
19/01:30pm 27.4 25.0 6.8 27 10.9 WSW 9 15 5 8 1014.4 - 0.0
19/01:00pm 27.5 24.9 6.3 26 11.2 WSW 9 19 5 10 1014.7 1014.2 0.0
19/12:30pm 27.1 25.0 6.5 27 10.9 W 7 13 4 7 1015.3 - 0.0
19/12:00pm 26.7 24.6 6.7 28 10.6 SSW 7 15 4 8 1015.7 1015.2 0.0
19/11:30am 26.6 23.7 6.6 28 10.5 WSW 11 20 6 11 1016.3 - 0.0
19/11:00am 26.0 23.6 7.1 30 10.0 SSW 9 19 5 10 1016.8 1016.3 0.0
19/10:30am 25.4 22.8 6.1 29 10.0 SSW 9 22 5 12 1017.2 - 0.0
19/10:00am 23.4 22.5 10.8 45 7.0 W 6 11 3 6 1017.6 1017.2 0.0
19/09:30am 21.5 20.0 10.6 50 6.0 W 9 11 5 6 1018.0 - 0.0
19/09:00am 19.8 18.2 10.2 54 5.2 W 9 13 5 7 1018.3 1017.9 0.0
19/08:30am 18.1 16.6 10.7 62 4.0 WSW 9 13 5 7 1018.3 - 0.0
19/08:00am 16.8 14.6 9.5 62 3.8 WSW 11 15 6 8 1018.3 1017.9 0.0
19/07:30am 15.1 14.0 10.1 72 2.6 WSW 6 11 3 6 1018.2 - 0.0
19/07:00am 13.0 12.5 9.4 79 1.8 SSW 2 4 1 2 1018.0 1017.6 0.0
19/06:30am 11.9 11.8 9.3 84 1.3 CALM 0 0 0 0 1017.8 - 0.0
19/06:00am 10.7 10.1 9.0 89 0.8 S 2 4 1 2 1017.4 1017.0 0.0
19/05:30am 11.0 10.0 8.9 87 1.0 SSW 4 6 2 3 1017.4 - 0.0
19/05:00am 11.4 10.3 8.6 83 1.4 S 4 4 2 2 1017.1 1016.6 0.0
19/04:30am 11.9 11.5 9.6 86 1.2 SW 2 4 1 2 1016.9 - 0.0
19/04:00am 12.3 11.3 10.2 87 1.1 WSW 6 7 3 4 1016.8 1016.3 0.0
19/03:30am 12.6 12.7 10.3 86 1.2 CALM 0 0 0 0 1016.7 - 0.0
19/03:00am 12.2 12.0 10.3 88 1.0 SSW 2 4 1 2 1016.8 1016.3 0.0
19/02:30am 12.7 12.9 10.4 86 1.2 CALM 0 0 0 0 1016.8 - 0.0
19/02:00am 13.0 13.2 10.4 84 1.4 CALM 0 0 0 0 1016.7 1016.2 0.0
19/01:30am 14.2 14.8 11.9 86 1.2 CALM 0 0 0 0 1016.7 - 0.0
19/01:00am 13.9 14.3 11.4 85 1.3 CALM 0 0 0 0 1016.7 1016.2 0.0
19/12:30am 13.4 13.7 10.9 85 1.3 CALM 0 0 0 0 1016.8 - 0.0
19/12:00am 14.5 15.0 11.5 82 1.6 W 0 0 0 0 1016.8 1016.3 0.0
 
Date/Time
EST
Temp
°C
App
Temp
°C
Dew
Point
Rel
Hum
%
Delta-T
°C
Wind Press
QNH
hPa
Press
MSL
hPa
Rain
since 9 am
mm
Dir
 
Spd
km/h
Gust
km/h
Spd
kts
Gust
kts
18/11:30pm 16.4 15.6 9.8 65 3.5 W 4 6 2 3 1016.7 - 0.0
18/11:00pm 17.9 16.3 8.7 55 4.8 W 7 7 4 4 1016.8 1016.3 0.0
18/10:30pm 17.5 16.4 9.9 61 4.0 W 6 7 3 4 1016.8 - 0.0
18/10:00pm 15.8 15.9 12.7 82 1.7 SSW 4 6 2 3 1016.8 1016.3 0.0
18/09:30pm 17.0 16.4 11.7 71 2.9 WSW 6 7 3 4 1016.6 - 0.0
18/09:00pm 17.7 17.8 12.8 73 2.7 SSW 4 4 2 2 1016.5 1016.0 0.0
18/08:30pm 17.6 17.5 12.1 70 3.0 SSW 4 6 2 3 1016.4 - 0.0
18/08:00pm 18.4 18.5 10.0 58 4.5 CALM 0 0 0 0 1016.2 1015.7 0.0
18/07:30pm 19.3 19.2 9.5 53 5.2 CALM 0 0 0 0 1015.9 - 0.0
18/07:00pm 20.4 20.2 9.0 48 6.0 CALM 0 0 0 0 1015.6 1015.1 0.0
18/06:30pm 22.1 21.2 9.3 44 6.9 S 4 6 2 3 1015.2 - 0.0
18/06:00pm 23.9 22.2 7.5 35 8.6 S 6 7 3 4 1014.8 1014.3 0.0
18/05:30pm 25.1 23.2 7.7 33 9.3 S 7 13 4 7 1014.4 - 0.0
18/05:00pm 26.4 23.7 7.4 30 10.1 S 11 17 6 9 1014.0 1013.6 0.0
18/04:30pm 27.9 25.5 7.2 27 11.1 SW 9 15 5 8 1013.7 - 0.0
18/04:00pm 28.1 25.0 7.4 27 11.1 SW 13 17 7 9 1013.6 1013.2 0.0
18/03:30pm 28.1 25.8 7.4 27 11.1 SW 9 15 5 8 1013.4 - 0.0
18/03:00pm 28.3 25.6 7.5 27 11.2 SSW 11 20 6 11 1013.4 1013.0 0.0
18/02:30pm 28.1 26.4 8.4 29 10.8 SSW 7 19 4 10 1013.5 - 0.0
18/02:00pm 28.1 25.8 8.9 30 10.6 SSW 11 20 6 11 1013.8 1013.4 0.0
18/01:30pm 27.7 25.5 9.5 32 10.1 SW 11 20 6 11 1013.9 - 0.0
18/01:00pm 27.2 25.3 10.4 35 9.5 SSW 11 20 6 11 1014.5 1014.0 0.0
18/12:30pm 26.5 24.7 9.4 34 9.4 SW 9 19 5 10 1015.0 - 0.0
18/12:00pm 26.3 24.8 10.5 37 8.9 SSW 9 20 5 11 1015.6 1015.1 0.0
18/11:30am 25.8 24.4 10.8 39 8.5 W 9 19 5 10 1016.3 - 0.0
18/11:00am 25.3 23.5 10.7 40 8.2 W 11 19 6 10 1016.8 1016.3 0.0
18/10:30am 24.6 23.5 13.2 49 6.7 W 11 15 6 8 1017.0 - 0.0
18/10:00am 23.3 22.9 15.1 60 4.9 WSW 11 17 6 9 1017.4 1017.0 0.0
18/09:30am 21.4 21.4 14.3 64 4.2 WSW 7 13 4 7 1017.8 - 0.0
18/09:00am 20.1 20.3 14.7 71 3.2 SW 7 13 4 7 1017.9 1017.5 0.2
18/08:30am 18.3 17.8 13.8 75 2.6 WSW 9 15 5 8 1018.0 - 0.2
18/08:00am 17.1 17.0 13.4 79 2.1 WSW 6 7 3 4 1017.9 1017.5 0.2
18/07:30am 16.4 16.4 13.7 84 1.5 WSW 6 9 3 5 1017.7 - 0.2
18/07:00am 15.4 15.2 13.1 86 1.3 W 6 7 3 4 1017.4 1017.0 0.2
18/06:30am 14.9 15.1 13.1 89 1.0 WSW 4 6 2 3 1017.2 - 0.2
18/06:00am 15.0 15.2 13.2 89 1.0 SW 4 7 2 4 1016.9 1016.4 0.2
18/05:30am 14.9 14.6 12.6 86 1.3 SW 6 11 3 6 1016.9 - 0.2
18/05:00am 15.4 15.0 13.1 86 1.3 SW 7 9 4 5 1016.7 1016.2 0.2
18/04:30am 16.0 16.1 13.8 87 1.2 WSW 6 9 3 5 1016.7 - 0.2
18/04:00am 15.2 14.7 13.7 91 0.8 WSW 9 13 5 7 1016.6 1016.1 0.2
18/03:30am 14.4 15.1 13.4 94 0.6 SSW 2 4 1 2 1016.5 - 0.2
18/03:00am 14.6 14.9 13.3 92 0.7 SW 4 4 2 2 1016.6 1016.1 0.2
18/02:30am 15.0 15.4 13.7 92 0.7 SW 4 6 2 3 1016.8 - 0.2
18/02:00am 15.1 15.8 13.3 89 1.0 S 2 4 1 2 1016.8 1016.3 0.2
18/01:30am 15.2 16.2 13.1 87 1.2 CALM 0 0 0 0 1016.9 - 0.2
18/01:00am 15.4 15.2 12.9 85 1.4 SSW 6 7 3 4 1017.0 1016.5 0.2
18/12:30am 15.9 16.4 12.8 82 1.7 S 2 6 1 3 1017.1 - 0.2
18/12:00am 16.4 17.5 13.5 83 1.6 CALM 0 0 0 0 1017.4 1017.0 0.2
 
Date/Time
EST
Temp
°C
App
Temp
°C
Dew
Point
Rel
Hum
%
Delta-T
°C
Wind Press
QNH
hPa
Press
MSL
hPa
Rain
since 9 am
mm
Dir
 
Spd
km/h
Gust
km/h
Spd
kts
Gust
kts
17/11:30pm 16.7 18.1 14.3 86 1.4 CALM 0 0 0 0 1017.4 - 0.2
17/11:00pm 17.4 19.0 14.9 85 1.5 CALM 0 4 0 2 1017.5 1017.1 0.2
17/10:30pm 17.1 18.4 14.2 83 1.7 CALM 0 0 0 0 1017.5 - 0.2
17/10:00pm 17.5 18.8 14.2 81 1.9 CALM 0 0 0 0 1017.3 1016.9 0.2
17/09:30pm 18.6 20.3 15.1 80 2.1 CALM 0 0 0 0 1017.3 - 0.2
17/09:00pm 18.6 20.1 14.7 78 2.3 CALM 0 0 0 0 1017.2 1016.8 0.2
17/08:30pm 19.4 20.9 14.6 74 2.8 CALM 0 0 0 0 1017.0 - 0.2
17/08:00pm 19.5 20.4 15.2 76 2.5 S 4 4 2 2 1016.8 1016.3 0.2
17/07:30pm 20.3 21.7 14.4 69 3.4 CALM 0 0 0 0 1016.4 - 0.2
17/07:00pm 20.9 22.9 15.9 73 3.0 CALM 0 0 0 0 1016.0 1015.5 0.2
17/06:30pm 21.6 23.6 15.9 70 3.4 CALM 0 0 0 0 1015.5 - 0.2
17/06:00pm 24.1 24.9 13.6 52 6.2 SSW 2 4 1 2 1015.4 1014.9 0.2
17/05:30pm 25.4 26.2 13.6 48 7.0 S 2 4 1 2 1015.2 - 0.2
17/05:00pm 26.3 26.2 13.4 45 7.6 S 6 6 3 3 1015.0 1014.5 0.2
17/04:30pm 26.5 26.3 12.9 43 8.0 S 6 9 3 5 1014.7 - 0.2
17/04:00pm 26.0 26.4 13.8 47 7.2 SSE 4 6 2 3 1014.6 1014.1 0.2
17/03:30pm 26.3 25.2 13.1 44 7.8 S 11 13 6 7 1014.5 - 0.2
17/03:00pm 27.2 25.9 11.3 37 9.1 WSW 9 15 5 8 1014.5 1014.0 0.2
17/02:30pm 26.9 24.9 11.4 38 8.9 WSW 13 20 7 11 1014.7 - 0.2
17/02:00pm 26.3 24.1 10.9 38 8.7 WSW 13 20 7 11 1014.8 1014.3 0.2
17/01:30pm 26.7 24.6 11.2 38 8.8 W 13 22 7 12 1015.0 - 0.2
17/01:00pm 27.8 25.8 12.6 39 8.9 W 15 20 8 11 1015.3 1014.8 0.2
17/12:30pm 26.8 26.9 15.5 50 6.9 W 9 15 5 8 1015.9 - 0.2
17/12:00pm 25.9 26.7 17.3 59 5.4 WNW 9 17 5 9 1016.5 1016.0 0.2
17/11:30am 25.4 27.2 18.3 65 4.5 SW 6 13 3 7 1017.2 - 0.2
17/11:00am 25.0 27.1 18.0 65 4.4 W 4 9 2 5 1017.7 1017.3 0.2
17/10:30am 24.3 26.3 17.8 67 4.1 E 4 11 2 6 1018.0 - 0.2
17/10:00am 23.4 25.7 18.5 74 3.1 NNE 4 9 2 5 1018.2 1017.8 0.2
17/09:30am 22.2 23.6 17.3 74 3.0 NNE 6 7 3 4 1018.3 - 0.0
17/09:00am 21.9 24.8 18.1 79 2.4 CALM 0 6 0 3 1018.4 1018.0 4.8
17/08:30am 20.1 22.1 16.9 82 2.0 NNE 2 6 1 3 1018.5 - 4.8
17/08:00am 18.7 20.3 15.9 84 1.7 NNE 2 4 1 2 1018.3 1017.9 4.8
17/07:30am 17.6 19.7 16.3 92 0.8 CALM 0 0 0 0 1018.1 - 4.8
17/07:00am 16.1 17.8 15.3 95 0.5 CALM 0 2 0 1 1017.9 1017.5 4.8
17/06:30am 15.1 16.5 14.5 96 0.3 CALM 0 0 0 0 1017.5 - 4.8
17/06:00am 15.0 16.4 14.4 96 0.3 CALM 0 0 0 0 1017.2 1016.8 4.8
17/05:30am 15.5 17.1 15.0 97 0.3 CALM 0 0 0 0 1016.8 - 4.8
17/05:00am 15.5 17.0 14.7 95 0.5 CALM 0 0 0 0 1016.7 1016.2 4.8
17/04:30am 15.8 17.4 15.0 95 0.5 CALM 0 0 0 0 1016.5 - 4.8
17/04:00am 15.9 17.6 15.1 95 0.5 CALM 0 0 0 0 1016.3 1015.8 4.8
17/03:30am 16.0 17.7 15.2 95 0.5 CALM 0 0 0 0 1016.1 - 4.8
17/03:00am 16.4 18.2 15.6 95 0.5 CALM 0 0 0 0 1016.1 1015.6 4.8
17/02:30am 16.5 18.4 15.7 95 0.5 CALM 0 0 0 0 1016.1 - 4.8
17/02:00am 16.8 18.8 16.0 95 0.5 CALM 0 0 0 0 1016.2 1015.7 4.8
17/01:30am 16.7 18.6 15.7 94 0.6 CALM 0 0 0 0 1016.4 - 4.8
17/01:00am 16.8 18.7 15.8 94 0.6 CALM 0 0 0 0 1016.6 1016.1 4.8
17/12:30am 17.1 18.8 16.1 94 0.6 NE 2 4 1 2 1016.6 - 4.8
17/12:00am 17.4 19.1 16.3 93 0.7 E 2 4 1 2 1016.6 1016.1 4.8
 
Date/Time
EST
Temp
°C
App
Temp
°C
Dew
Point
Rel
Hum
%
Delta-T
°C
Wind Press
QNH
hPa
Press
MSL
hPa
Rain
since 9 am
mm
Dir
 
Spd
km/h
Gust
km/h
Spd
kts
Gust
kts
16/11:30pm 17.2 18.4 15.9 92 0.8 SSE 4 6 2 3 1016.4 - 4.8
16/11:00pm 17.8 19.7 16.7 93 0.7 SSE 2 6 1 3 1016.3 1015.8 4.8
16/10:30pm 18.0 18.9 16.7 92 0.8 SSE 7 7 4 4 1016.3 - 4.8
16/10:00pm 18.4 21.0 17.4 94 0.6 CALM 0 0 0 0 1016.5 1016.0 4.8
16/09:30pm 18.4 20.8 16.9 91 0.9 CALM 0 4 0 2 1016.5 - 4.8
16/09:00pm 19.2 21.9 17.7 91 0.9 CALM 0 0 0 0 1016.1 1015.6 4.8
16/08:30pm 19.6 21.2 17.9 90 1.1 S 6 7 3 4 1015.8 - 4.8
16/08:00pm 20.1 22.8 17.7 86 1.5 CALM 0 4 0 2 1015.6 1015.1 4.8
16/07:30pm 20.7 23.1 17.9 84 1.7 N 2 4 1 2 1015.2 - 4.8
16/07:00pm 20.6 22.6 17.8 84 1.7 SSE 4 7 2 4 1015.0 1014.5 4.8
16/06:30pm 21.0 23.7 17.8 82 2.0 CALM 0 0 0 0 1014.4 - 4.8

Other Formats:

Comma delimited format used in spreadsheet applications
http://www.bom.gov.au/fwo/IDQ60801/IDQ60801.95543.axf

JavaScript Object Notation format (JSON) in row-major order
http://www.bom.gov.au/fwo/IDQ60801/IDQ60801.95543.json